sensor_id;sensor_type;location;lat;lon;timestamp;temperature;humidity
40960;DHT22;27842;52.272;8.052;2024-01-30T00:01:51;7.20;99.90
40960;DHT22;27842;52.272;8.052;2024-01-30T00:04:17;7.20;99.90
40960;DHT22;27842;52.272;8.052;2024-01-30T00:06:43;7.30;99.90
40960;DHT22;27842;52.272;8.052;2024-01-30T00:09:09;7.30;99.90
40960;DHT22;27842;52.272;8.052;2024-01-30T00:11:36;7.40;99.90
40960;DHT22;27842;52.272;8.052;2024-01-30T00:14:02;7.40;99.90
40960;DHT22;27842;52.272;8.052;2024-01-30T00:16:28;7.40;99.90
40960;DHT22;27842;52.272;8.052;2024-01-30T00:18:54;7.40;99.90
40960;DHT22;27842;52.272;8.052;2024-01-30T00:21:20;7.40;99.90
40960;DHT22;27842;52.272;8.052;2024-01-30T00:23:46;7.50;99.90
40960;DHT22;27842;52.272;8.052;2024-01-30T00:26:13;7.50;99.90
40960;DHT22;27842;52.272;8.052;2024-01-30T00:28:40;7.50;99.90
40960;DHT22;27842;52.272;8.052;2024-01-30T00:31:05;7.50;99.90
40960;DHT22;27842;52.272;8.052;2024-01-30T00:33:31;7.60;99.90
40960;DHT22;27842;52.272;8.052;2024-01-30T00:35:56;7.50;99.90
40960;DHT22;27842;52.272;8.052;2024-01-30T00:38:22;7.60;99.90
40960;DHT22;27842;52.272;8.052;2024-01-30T00:40:48;7.60;99.90
40960;DHT22;27842;52.272;8.052;2024-01-30T00:43:14;7.60;99.90
40960;DHT22;27842;52.272;8.052;2024-01-30T00:45:40;7.60;99.90
40960;DHT22;27842;52.272;8.052;2024-01-30T00:48:06;7.60;99.90
40960;DHT22;27842;52.272;8.052;2024-01-30T00:50:31;7.60;99.90
40960;DHT22;27842;52.272;8.052;2024-01-30T00:52:57;7.60;99.90
40960;DHT22;27842;52.272;8.052;2024-01-30T00:55:22;7.50;99.90
40960;DHT22;27842;52.272;8.052;2024-01-30T00:57:48;7.50;99.90
40960;DHT22;27842;52.272;8.052;2024-01-30T01:00:14;7.50;99.90
40960;DHT22;27842;52.272;8.052;2024-01-30T01:02:42;7.40;99.90
40960;DHT22;27842;52.272;8.052;2024-01-30T01:05:08;7.40;99.90
40960;DHT22;27842;52.272;8.052;2024-01-30T01:07:34;7.40;99.90
40960;DHT22;27842;52.272;8.052;2024-01-30T01:10:00;7.40;99.90
40960;DHT22;27842;52.272;8.052;2024-01-30T01:12:25;7.40;99.90
40960;DHT22;27842;52.272;8.052;2024-01-30T01:14:51;7.40;99.90
40960;DHT22;27842;52.272;8.052;2024-01-30T01:17:17;7.30;99.90
40960;DHT22;27842;52.272;8.052;2024-01-30T01:19:43;7.30;99.90
40960;DHT22;27842;52.272;8.052;2024-01-30T01:22:09;7.20;99.90
40960;DHT22;27842;52.272;8.052;2024-01-30T01:24:35;7.20;99.90
40960;DHT22;27842;52.272;8.052;2024-01-30T01:27:02;7.20;99.90
40960;DHT22;27842;52.272;8.052;2024-01-30T01:29:27;7.20;99.90
40960;DHT22;27842;52.272;8.052;2024-01-30T01:31:56;7.20;99.90
40960;DHT22;27842;52.272;8.052;2024-01-30T01:34:22;7.20;99.90
40960;DHT22;27842;52.272;8.052;2024-01-30T01:36:49;7.20;99.90
40960;DHT22;27842;52.272;8.052;2024-01-30T01:39:14;7.20;99.90
40960;DHT22;27842;52.272;8.052;2024-01-30T01:41:41;7.20;99.90
40960;DHT22;27842;52.272;8.052;2024-01-30T01:44:07;7.30;99.90
40960;DHT22;27842;52.272;8.052;2024-01-30T01:46:33;7.30;99.90
40960;DHT22;27842;52.272;8.052;2024-01-30T01:49:00;7.30;99.90
40960;DHT22;27842;52.272;8.052;2024-01-30T01:51:27;7.30;99.90
40960;DHT22;27842;52.272;8.052;2024-01-30T01:53:54;7.20;99.90
40960;DHT22;27842;52.272;8.052;2024-01-30T01:56:22;7.20;99.90
40960;DHT22;27842;52.272;8.052;2024-01-30T01:58:49;7.20;99.90
40960;DHT22;27842;52.272;8.052;2024-01-30T02:01:16;7.20;99.90
40960;DHT22;27842;52.272;8.052;2024-01-30T02:03:44;7.20;99.90
40960;DHT22;27842;52.272;8.052;2024-01-30T02:06:10;7.20;99.90
40960;DHT22;27842;52.272;8.052;2024-01-30T02:08:37;7.20;99.90
40960;DHT22;27842;52.272;8.052;2024-01-30T02:11:03;7.20;99.90
40960;DHT22;27842;52.272;8.052;2024-01-30T02:13:29;7.20;99.90
40960;DHT22;27842;52.272;8.052;2024-01-30T02:15:54;7.20;99.90
40960;DHT22;27842;52.272;8.052;2024-01-30T02:18:20;7.20;99.90
40960;DHT22;27842;52.272;8.052;2024-01-30T02:20:49;7.20;99.90
40960;DHT22;27842;52.272;8.052;2024-01-30T02:23:16;7.20;99.90
40960;DHT22;27842;52.272;8.052;2024-01-30T02:25:42;7.20;99.90
40960;DHT22;27842;52.272;8.052;2024-01-30T02:28:12;7.20;99.90
40960;DHT22;27842;52.272;8.052;2024-01-30T02:30:44;7.20;99.90
40960;DHT22;27842;52.272;8.052;2024-01-30T02:33:10;7.20;99.90
40960;DHT22;27842;52.272;8.052;2024-01-30T02:35:35;7.20;99.90
40960;DHT22;27842;52.272;8.052;2024-01-30T02:38:01;7.20;99.90
40960;DHT22;27842;52.272;8.052;2024-01-30T02:40:27;7.20;99.90
40960;DHT22;27842;52.272;8.052;2024-01-30T02:42:52;7.20;99.90
40960;DHT22;27842;52.272;8.052;2024-01-30T02:45:18;7.20;99.90
40960;DHT22;27842;52.272;8.052;2024-01-30T02:47:43;7.20;99.90
40960;DHT22;27842;52.272;8.052;2024-01-30T02:50:09;7.20;99.90
40960;DHT22;27842;52.272;8.052;2024-01-30T02:52:35;7.20;99.90
40960;DHT22;27842;52.272;8.052;2024-01-30T02:55:01;7.20;99.90
40960;DHT22;27842;52.272;8.052;2024-01-30T02:57:27;7.20;99.90
40960;DHT22;27842;52.272;8.052;2024-01-30T02:59:53;7.10;99.90
40960;DHT22;27842;52.272;8.052;2024-01-30T03:02:18;7.20;99.90
40960;DHT22;27842;52.272;8.052;2024-01-30T03:04:44;7.10;99.90
40960;DHT22;27842;52.272;8.052;2024-01-30T03:07:09;7.10;99.90
40960;DHT22;27842;52.272;8.052;2024-01-30T03:09:36;7.10;99.90
40960;DHT22;27842;52.272;8.052;2024-01-30T03:12:02;7.10;99.90
40960;DHT22;27842;52.272;8.052;2024-01-30T03:14:27;7.20;99.90
40960;DHT22;27842;52.272;8.052;2024-01-30T03:16:53;7.10;99.90
40960;DHT22;27842;52.272;8.052;2024-01-30T03:19:18;7.10;99.90
40960;DHT22;27842;52.272;8.052;2024-01-30T03:21:44;7.10;99.90
40960;DHT22;27842;52.272;8.052;2024-01-30T03:24:09;7.10;99.90
40960;DHT22;27842;52.272;8.052;2024-01-30T03:26:35;7.10;99.90
40960;DHT22;27842;52.272;8.052;2024-01-30T03:29:00;7.10;99.90
40960;DHT22;27842;52.272;8.052;2024-01-30T03:31:26;7.10;99.90
40960;DHT22;27842;52.272;8.052;2024-01-30T03:33:52;7.10;99.90
40960;DHT22;27842;52.272;8.052;2024-01-30T03:36:17;7.10;99.90
40960;DHT22;27842;52.272;8.052;2024-01-30T03:38:43;7.10;99.90
40960;DHT22;27842;52.272;8.052;2024-01-30T03:41:09;7.10;99.90
40960;DHT22;27842;52.272;8.052;2024-01-30T03:43:35;7.10;99.90
40960;DHT22;27842;52.272;8.052;2024-01-30T03:46:02;7.00;99.90
40960;DHT22;27842;52.272;8.052;2024-01-30T03:48:28;7.00;99.90
40960;DHT22;27842;52.272;8.052;2024-01-30T03:50:54;7.00;99.90
40960;DHT22;27842;52.272;8.052;2024-01-30T03:53:19;7.00;99.90
40960;DHT22;27842;52.272;8.052;2024-01-30T03:55:45;7.00;99.90
40960;DHT22;27842;52.272;8.052;2024-01-30T03:58:11;7.00;99.90
40960;DHT22;27842;52.272;8.052;2024-01-30T04:00:36;7.00;99.90
40960;DHT22;27842;52.272;8.052;2024-01-30T04:03:02;6.90;99.90
40960;DHT22;27842;52.272;8.052;2024-01-30T04:05:28;6.90;99.90
40960;DHT22;27842;52.272;8.052;2024-01-30T04:07:53;6.90;99.90
40960;DHT22;27842;52.272;8.052;2024-01-30T04:10:19;6.90;99.90
40960;DHT22;27842;52.272;8.052;2024-01-30T04:12:45;6.90;99.90
40960;DHT22;27842;52.272;8.052;2024-01-30T04:15:10;6.90;99.90
40960;DHT22;27842;52.272;8.052;2024-01-30T04:17:36;6.90;99.90
40960;DHT22;27842;52.272;8.052;2024-01-30T04:20:01;6.90;99.90
40960;DHT22;27842;52.272;8.052;2024-01-30T04:22:27;6.90;99.90
40960;DHT22;27842;52.272;8.052;2024-01-30T04:24:53;6.90;99.90
40960;DHT22;27842;52.272;8.052;2024-01-30T04:27:18;6.90;99.90
40960;DHT22;27842;52.272;8.052;2024-01-30T04:29:44;6.90;99.90
40960;DHT22;27842;52.272;8.052;2024-01-30T04:32:09;6.90;99.90
40960;DHT22;27842;52.272;8.052;2024-01-30T04:34:36;6.90;99.90
40960;DHT22;27842;52.272;8.052;2024-01-30T04:37:02;6.90;99.90
40960;DHT22;27842;52.272;8.052;2024-01-30T04:39:28;6.90;99.90
40960;DHT22;27842;52.272;8.052;2024-01-30T04:41:53;6.80;99.90
40960;DHT22;27842;52.272;8.052;2024-01-30T04:44:19;6.90;99.90
40960;DHT22;27842;52.272;8.052;2024-01-30T04:46:44;6.90;99.90
40960;DHT22;27842;52.272;8.052;2024-01-30T04:49:10;6.80;99.90
40960;DHT22;27842;52.272;8.052;2024-01-30T04:51:36;6.80;99.90
40960;DHT22;27842;52.272;8.052;2024-01-30T04:54:02;6.80;99.90
40960;DHT22;27842;52.272;8.052;2024-01-30T04:56:27;6.80;99.90
40960;DHT22;27842;52.272;8.052;2024-01-30T04:58:53;6.80;99.90
40960;DHT22;27842;52.272;8.052;2024-01-30T05:01:18;6.80;99.90
40960;DHT22;27842;52.272;8.052;2024-01-30T05:03:44;6.80;99.90
40960;DHT22;27842;52.272;8.052;2024-01-30T05:06:10;6.80;99.90
40960;DHT22;27842;52.272;8.052;2024-01-30T05:08:35;6.80;99.90
40960;DHT22;27842;52.272;8.052;2024-01-30T05:11:05;6.80;99.90
40960;DHT22;27842;52.272;8.052;2024-01-30T05:13:31;6.80;99.90
40960;DHT22;27842;52.272;8.052;2024-01-30T05:15:57;6.90;99.90
40960;DHT22;27842;52.272;8.052;2024-01-30T05:18:22;6.90;99.90
40960;DHT22;27842;52.272;8.052;2024-01-30T05:20:50;6.90;99.90
40960;DHT22;27842;52.272;8.052;2024-01-30T05:23:15;6.90;99.90
40960;DHT22;27842;52.272;8.052;2024-01-30T05:25:41;7.00;99.90
40960;DHT22;27842;52.272;8.052;2024-01-30T05:28:06;7.00;99.90
40960;DHT22;27842;52.272;8.052;2024-01-30T05:30:32;7.00;99.90
40960;DHT22;27842;52.272;8.052;2024-01-30T05:32:57;7.00;99.90
40960;DHT22;27842;52.272;8.052;2024-01-30T05:35:23;7.00;99.90
40960;DHT22;27842;52.272;8.052;2024-01-30T05:37:48;7.00;99.90
40960;DHT22;27842;52.272;8.052;2024-01-30T05:40:15;7.00;99.90
40960;DHT22;27842;52.272;8.052;2024-01-30T05:42:41;7.00;99.90
40960;DHT22;27842;52.272;8.052;2024-01-30T05:45:06;7.00;99.90
40960;DHT22;27842;52.272;8.052;2024-01-30T05:47:33;7.00;99.90
40960;DHT22;27842;52.272;8.052;2024-01-30T05:49:59;7.00;99.90
40960;DHT22;27842;52.272;8.052;2024-01-30T05:52:24;7.00;99.90
40960;DHT22;27842;52.272;8.052;2024-01-30T05:54:50;7.00;99.90
40960;DHT22;27842;52.272;8.052;2024-01-30T05:57:16;7.10;99.90
40960;DHT22;27842;52.272;8.052;2024-01-30T05:59:42;7.10;99.90
40960;DHT22;27842;52.272;8.052;2024-01-30T06:02:10;7.20;99.90
40960;DHT22;27842;52.272;8.052;2024-01-30T06:04:36;7.20;99.90
40960;DHT22;27842;52.272;8.052;2024-01-30T06:07:02;7.30;99.90
40960;DHT22;27842;52.272;8.052;2024-01-30T06:09:28;7.30;99.90
40960;DHT22;27842;52.272;8.052;2024-01-30T06:11:54;7.30;99.90
40960;DHT22;27842;52.272;8.052;2024-01-30T06:14:20;7.40;99.90
40960;DHT22;27842;52.272;8.052;2024-01-30T06:16:46;7.40;99.90
40960;DHT22;27842;52.272;8.052;2024-01-30T06:19:12;7.40;99.90
40960;DHT22;27842;52.272;8.052;2024-01-30T06:21:37;7.50;99.90
40960;DHT22;27842;52.272;8.052;2024-01-30T06:24:04;7.50;99.90
40960;DHT22;27842;52.272;8.052;2024-01-30T06:26:29;7.50;99.90
40960;DHT22;27842;52.272;8.052;2024-01-30T06:28:55;7.50;99.90
40960;DHT22;27842;52.272;8.052;2024-01-30T06:31:20;7.50;99.90
40960;DHT22;27842;52.272;8.052;2024-01-30T06:33:49;7.50;99.90
40960;DHT22;27842;52.272;8.052;2024-01-30T06:36:15;7.50;99.90
40960;DHT22;27842;52.272;8.052;2024-01-30T06:38:41;7.60;99.90
40960;DHT22;27842;52.272;8.052;2024-01-30T06:41:06;7.60;99.90
40960;DHT22;27842;52.272;8.052;2024-01-30T06:43:32;7.60;99.90
40960;DHT22;27842;52.272;8.052;2024-01-30T06:45:58;7.60;99.90
40960;DHT22;27842;52.272;8.052;2024-01-30T06:48:23;7.50;99.90
40960;DHT22;27842;52.272;8.052;2024-01-30T06:50:49;7.50;99.90
40960;DHT22;27842;52.272;8.052;2024-01-30T06:53:16;7.60;99.90
40960;DHT22;27842;52.272;8.052;2024-01-30T06:55:41;7.60;99.90
40960;DHT22;27842;52.272;8.052;2024-01-30T06:58:07;7.60;99.90
40960;DHT22;27842;52.272;8.052;2024-01-30T07:00:32;7.70;99.90
40960;DHT22;27842;52.272;8.052;2024-01-30T07:02:58;7.70;99.90
40960;DHT22;27842;52.272;8.052;2024-01-30T07:05:23;7.70;99.90
40960;DHT22;27842;52.272;8.052;2024-01-30T07:07:49;7.80;99.90
40960;DHT22;27842;52.272;8.052;2024-01-30T07:10:15;7.90;99.90
40960;DHT22;27842;52.272;8.052;2024-01-30T07:12:40;7.90;99.90
40960;DHT22;27842;52.272;8.052;2024-01-30T07:15:06;8.00;99.90
40960;DHT22;27842;52.272;8.052;2024-01-30T07:17:34;7.90;99.90
40960;DHT22;27842;52.272;8.052;2024-01-30T07:20:00;8.00;99.90
40960;DHT22;27842;52.272;8.052;2024-01-30T07:22:29;8.00;99.90
40960;DHT22;27842;52.272;8.052;2024-01-30T07:24:55;8.00;99.90
40960;DHT22;27842;52.272;8.052;2024-01-30T07:27:20;8.00;99.90
40960;DHT22;27842;52.272;8.052;2024-01-30T07:29:47;8.00;99.90
40960;DHT22;27842;52.272;8.052;2024-01-30T07:32:13;8.10;99.90
40960;DHT22;27842;52.272;8.052;2024-01-30T07:34:38;8.10;99.90
40960;DHT22;27842;52.272;8.052;2024-01-30T07:37:04;8.10;99.90
40960;DHT22;27842;52.272;8.052;2024-01-30T07:39:30;8.10;99.90
40960;DHT22;27842;52.272;8.052;2024-01-30T07:41:55;8.10;99.90
40960;DHT22;27842;52.272;8.052;2024-01-30T07:44:22;8.10;99.90
40960;DHT22;27842;52.272;8.052;2024-01-30T07:46:48;8.10;99.90
40960;DHT22;27842;52.272;8.052;2024-01-30T07:49:14;8.10;99.90
40960;DHT22;27842;52.272;8.052;2024-01-30T07:51:40;8.10;99.90
40960;DHT22;27842;52.272;8.052;2024-01-30T07:54:05;8.10;99.90
40960;DHT22;27842;52.272;8.052;2024-01-30T07:56:31;8.20;99.90
40960;DHT22;27842;52.272;8.052;2024-01-30T07:58:57;8.30;99.90
40960;DHT22;27842;52.272;8.052;2024-01-30T08:01:22;8.30;99.90
40960;DHT22;27842;52.272;8.052;2024-01-30T08:03:48;8.40;99.90
40960;DHT22;27842;52.272;8.052;2024-01-30T08:06:13;8.50;99.90
40960;DHT22;27842;52.272;8.052;2024-01-30T08:08:39;8.50;99.90
40960;DHT22;27842;52.272;8.052;2024-01-30T08:11:05;8.60;99.90
40960;DHT22;27842;52.272;8.052;2024-01-30T08:13:30;8.70;99.90
40960;DHT22;27842;52.272;8.052;2024-01-30T08:15:56;8.70;99.90
40960;DHT22;27842;52.272;8.052;2024-01-30T08:18:22;8.90;99.90
40960;DHT22;27842;52.272;8.052;2024-01-30T08:20:47;8.90;99.90
40960;DHT22;27842;52.272;8.052;2024-01-30T08:23:14;9.00;99.90
40960;DHT22;27842;52.272;8.052;2024-01-30T08:25:40;9.10;99.90
40960;DHT22;27842;52.272;8.052;2024-01-30T08:28:05;9.20;99.90
40960;DHT22;27842;52.272;8.052;2024-01-30T08:30:32;9.20;99.90
40960;DHT22;27842;52.272;8.052;2024-01-30T08:32:58;9.30;99.90
40960;DHT22;27842;52.272;8.052;2024-01-30T08:35:23;9.30;99.90
40960;DHT22;27842;52.272;8.052;2024-01-30T08:37:49;9.30;99.90
40960;DHT22;27842;52.272;8.052;2024-01-30T08:40:15;9.40;99.90
40960;DHT22;27842;52.272;8.052;2024-01-30T08:42:40;9.40;99.90
40960;DHT22;27842;52.272;8.052;2024-01-30T08:45:06;9.40;99.90
40960;DHT22;27842;52.272;8.052;2024-01-30T08:47:32;9.40;99.90
40960;DHT22;27842;52.272;8.052;2024-01-30T08:49:58;9.50;99.90
40960;DHT22;27842;52.272;8.052;2024-01-30T08:52:24;9.50;99.90
40960;DHT22;27842;52.272;8.052;2024-01-30T08:54:50;9.50;99.90
40960;DHT22;27842;52.272;8.052;2024-01-30T08:57:15;9.60;99.90
40960;DHT22;27842;52.272;8.052;2024-01-30T08:59:41;9.60;99.90
40960;DHT22;27842;52.272;8.052;2024-01-30T09:02:09;9.60;99.90
40960;DHT22;27842;52.272;8.052;2024-01-30T09:04:35;9.70;99.90
40960;DHT22;27842;52.272;8.052;2024-01-30T09:07:01;9.70;99.90
40960;DHT22;27842;52.272;8.052;2024-01-30T09:09:26;9.70;99.90
40960;DHT22;27842;52.272;8.052;2024-01-30T09:11:52;9.80;99.90
40960;DHT22;27842;52.272;8.052;2024-01-30T09:14:17;9.80;99.90
40960;DHT22;27842;52.272;8.052;2024-01-30T09:16:43;9.80;99.90
40960;DHT22;27842;52.272;8.052;2024-01-30T09:19:08;9.80;99.90
40960;DHT22;27842;52.272;8.052;2024-01-30T09:21:34;9.80;99.90
40960;DHT22;27842;52.272;8.052;2024-01-30T09:24:03;9.80;99.90
40960;DHT22;27842;52.272;8.052;2024-01-30T09:26:29;9.80;99.90
40960;DHT22;27842;52.272;8.052;2024-01-30T09:28:55;9.80;99.90
40960;DHT22;27842;52.272;8.052;2024-01-30T09:31:20;9.80;99.90
40960;DHT22;27842;52.272;8.052;2024-01-30T09:33:46;9.80;99.90
40960;DHT22;27842;52.272;8.052;2024-01-30T09:36:13;9.80;99.90
40960;DHT22;27842;52.272;8.052;2024-01-30T09:38:41;9.80;99.90
40960;DHT22;27842;52.272;8.052;2024-01-30T09:41:09;9.80;99.90
40960;DHT22;27842;52.272;8.052;2024-01-30T09:43:37;9.80;99.90
40960;DHT22;27842;52.272;8.052;2024-01-30T09:46:05;9.90;99.90
40960;DHT22;27842;52.272;8.052;2024-01-30T09:48:33;9.90;99.90
40960;DHT22;27842;52.272;8.052;2024-01-30T09:51:00;9.80;99.90
40960;DHT22;27842;52.272;8.052;2024-01-30T09:53:25;9.90;99.90
40960;DHT22;27842;52.272;8.052;2024-01-30T09:55:51;9.90;99.90
40960;DHT22;27842;52.272;8.052;2024-01-30T09:58:17;9.90;99.90
40960;DHT22;27842;52.272;8.052;2024-01-30T10:00:43;9.90;99.90
40960;DHT22;27842;52.272;8.052;2024-01-30T10:03:09;10.00;99.90
40960;DHT22;27842;52.272;8.052;2024-01-30T10:05:35;9.90;99.90
40960;DHT22;27842;52.272;8.052;2024-01-30T10:08:06;10.00;99.90
40960;DHT22;27842;52.272;8.052;2024-01-30T10:10:33;10.00;99.90
40960;DHT22;27842;52.272;8.052;2024-01-30T10:12:59;10.00;99.90
40960;DHT22;27842;52.272;8.052;2024-01-30T10:15:25;10.00;99.90
40960;DHT22;27842;52.272;8.052;2024-01-30T10:17:53;10.10;99.90
40960;DHT22;27842;52.272;8.052;2024-01-30T10:20:18;10.20;99.90
40960;DHT22;27842;52.272;8.052;2024-01-30T10:22:45;10.20;99.90
40960;DHT22;27842;52.272;8.052;2024-01-30T10:25:11;10.20;99.90
40960;DHT22;27842;52.272;8.052;2024-01-30T10:27:39;10.20;99.90
40960;DHT22;27842;52.272;8.052;2024-01-30T10:30:05;10.30;99.90
40960;DHT22;27842;52.272;8.052;2024-01-30T10:32:31;10.30;99.90
40960;DHT22;27842;52.272;8.052;2024-01-30T10:34:57;10.30;99.90
40960;DHT22;27842;52.272;8.052;2024-01-30T10:37:25;10.30;99.90
40960;DHT22;27842;52.272;8.052;2024-01-30T10:39:53;10.40;99.90
40960;DHT22;27842;52.272;8.052;2024-01-30T10:42:20;10.40;99.90
40960;DHT22;27842;52.272;8.052;2024-01-30T10:45:06;10.40;99.90
40960;DHT22;27842;52.272;8.052;2024-01-30T10:47:35;10.50;99.90
40960;DHT22;27842;52.272;8.052;2024-01-30T10:50:05;10.50;99.90
40960;DHT22;27842;52.272;8.052;2024-01-30T10:52:32;10.50;99.90
40960;DHT22;27842;52.272;8.052;2024-01-30T10:54:58;10.50;99.90
40960;DHT22;27842;52.272;8.052;2024-01-30T10:57:25;10.50;99.90
40960;DHT22;27842;52.272;8.052;2024-01-30T10:59:55;10.40;99.90
40960;DHT22;27842;52.272;8.052;2024-01-30T11:02:22;10.50;99.90
40960;DHT22;27842;52.272;8.052;2024-01-30T11:04:49;10.40;99.90
40960;DHT22;27842;52.272;8.052;2024-01-30T11:07:18;10.40;99.90
40960;DHT22;27842;52.272;8.052;2024-01-30T11:10:13;10.50;99.90
40960;DHT22;27842;52.272;8.052;2024-01-30T11:12:40;10.40;99.90
40960;DHT22;27842;52.272;8.052;2024-01-30T11:15:16;10.50;99.90
40960;DHT22;27842;52.272;8.052;2024-01-30T11:20:14;10.50;99.90
40960;DHT22;27842;52.272;8.052;2024-01-30T11:22:42;10.50;99.90
40960;DHT22;27842;52.272;8.052;2024-01-30T11:25:14;10.40;99.90
40960;DHT22;27842;52.272;8.052;2024-01-30T11:27:42;10.50;99.90
40960;DHT22;27842;52.272;8.052;2024-01-30T11:30:08;10.50;99.90
40960;DHT22;27842;52.272;8.052;2024-01-30T11:32:34;10.50;99.90
40960;DHT22;27842;52.272;8.052;2024-01-30T11:34:59;10.50;99.90
40960;DHT22;27842;52.272;8.052;2024-01-30T11:37:25;10.50;99.90
40960;DHT22;27842;52.272;8.052;2024-01-30T11:39:54;10.50;99.90
40960;DHT22;27842;52.272;8.052;2024-01-30T11:42:23;10.50;99.90
40960;DHT22;27842;52.272;8.052;2024-01-30T11:44:50;10.50;99.90
40960;DHT22;27842;52.272;8.052;2024-01-30T11:47:16;10.60;99.90
40960;DHT22;27842;52.272;8.052;2024-01-30T11:49:43;10.60;99.90
40960;DHT22;27842;52.272;8.052;2024-01-30T11:52:09;10.70;99.90
40960;DHT22;27842;52.272;8.052;2024-01-30T11:54:35;10.70;99.90
40960;DHT22;27842;52.272;8.052;2024-01-30T11:57:00;10.80;99.90
40960;DHT22;27842;52.272;8.052;2024-01-30T11:59:26;10.80;99.90
40960;DHT22;27842;52.272;8.052;2024-01-30T12:01:52;10.80;99.90
40960;DHT22;27842;52.272;8.052;2024-01-30T12:04:17;10.90;99.90
40960;DHT22;27842;52.272;8.052;2024-01-30T12:06:43;11.00;99.90
40960;DHT22;27842;52.272;8.052;2024-01-30T12:09:09;11.00;99.90
40960;DHT22;27842;52.272;8.052;2024-01-30T12:11:47;11.10;99.90
40960;DHT22;27842;52.272;8.052;2024-01-30T12:14:13;11.20;99.90
40960;DHT22;27842;52.272;8.052;2024-01-30T12:16:39;11.20;99.90
40960;DHT22;27842;52.272;8.052;2024-01-30T12:19:04;11.20;99.90
40960;DHT22;27842;52.272;8.052;2024-01-30T12:21:30;11.20;99.90
40960;DHT22;27842;52.272;8.052;2024-01-30T12:23:56;11.20;99.90
40960;DHT22;27842;52.272;8.052;2024-01-30T12:26:24;11.20;99.90
40960;DHT22;27842;52.272;8.052;2024-01-30T12:28:51;11.30;99.90
40960;DHT22;27842;52.272;8.052;2024-01-30T12:31:25;11.30;99.90
40960;DHT22;27842;52.272;8.052;2024-01-30T12:33:52;11.30;99.90
40960;DHT22;27842;52.272;8.052;2024-01-30T12:36:18;11.30;99.90
40960;DHT22;27842;52.272;8.052;2024-01-30T12:38:43;11.30;99.90
40960;DHT22;27842;52.272;8.052;2024-01-30T12:41:09;11.30;99.90
40960;DHT22;27842;52.272;8.052;2024-01-30T12:43:35;11.30;99.90
40960;DHT22;27842;52.272;8.052;2024-01-30T12:46:02;11.30;99.90
40960;DHT22;27842;52.272;8.052;2024-01-30T12:48:28;11.30;99.90
40960;DHT22;27842;52.272;8.052;2024-01-30T12:50:55;11.20;99.90
40960;DHT22;27842;52.272;8.052;2024-01-30T12:53:21;11.20;99.90
40960;DHT22;27842;52.272;8.052;2024-01-30T12:55:47;11.20;99.90
40960;DHT22;27842;52.272;8.052;2024-01-30T12:58:12;11.20;99.90
40960;DHT22;27842;52.272;8.052;2024-01-30T13:00:38;11.10;99.90
40960;DHT22;27842;52.272;8.052;2024-01-30T13:03:03;11.20;99.90
40960;DHT22;27842;52.272;8.052;2024-01-30T13:05:29;11.10;99.90
40960;DHT22;27842;52.272;8.052;2024-01-30T13:07:55;11.10;99.90
40960;DHT22;27842;52.272;8.052;2024-01-30T13:10:22;11.10;99.90
40960;DHT22;27842;52.272;8.052;2024-01-30T13:12:48;11.10;99.90
40960;DHT22;27842;52.272;8.052;2024-01-30T13:15:13;11.10;99.90
40960;DHT22;27842;52.272;8.052;2024-01-30T13:17:39;11.10;99.90
40960;DHT22;27842;52.272;8.052;2024-01-30T13:20:05;11.10;99.90
40960;DHT22;27842;52.272;8.052;2024-01-30T13:22:33;11.10;99.90
40960;DHT22;27842;52.272;8.052;2024-01-30T13:24:59;11.10;99.90
40960;DHT22;27842;52.272;8.052;2024-01-30T13:27:25;11.10;99.90
40960;DHT22;27842;52.272;8.052;2024-01-30T13:29:50;11.20;99.90
40960;DHT22;27842;52.272;8.052;2024-01-30T13:32:16;11.20;99.90
40960;DHT22;27842;52.272;8.052;2024-01-30T13:34:41;11.20;99.90
40960;DHT22;27842;52.272;8.052;2024-01-30T13:37:08;11.20;99.90
40960;DHT22;27842;52.272;8.052;2024-01-30T13:39:34;11.20;99.90
40960;DHT22;27842;52.272;8.052;2024-01-30T13:41:59;11.20;99.90
40960;DHT22;27842;52.272;8.052;2024-01-30T13:44:25;11.20;99.90
40960;DHT22;27842;52.272;8.052;2024-01-30T13:46:51;11.20;99.90
40960;DHT22;27842;52.272;8.052;2024-01-30T13:49:16;11.20;99.90
40960;DHT22;27842;52.272;8.052;2024-01-30T13:51:42;11.20;99.90
40960;DHT22;27842;52.272;8.052;2024-01-30T13:54:08;11.20;99.90
40960;DHT22;27842;52.272;8.052;2024-01-30T13:56:34;11.20;99.90
40960;DHT22;27842;52.272;8.052;2024-01-30T13:59:00;11.20;99.90
40960;DHT22;27842;52.272;8.052;2024-01-30T14:01:27;11.20;99.90
40960;DHT22;27842;52.272;8.052;2024-01-30T14:03:52;11.20;99.90
40960;DHT22;27842;52.272;8.052;2024-01-30T14:06:18;11.20;99.90
40960;DHT22;27842;52.272;8.052;2024-01-30T14:08:47;11.20;99.90
40960;DHT22;27842;52.272;8.052;2024-01-30T14:11:13;11.30;99.90
40960;DHT22;27842;52.272;8.052;2024-01-30T14:13:38;11.40;99.90
40960;DHT22;27842;52.272;8.052;2024-01-30T14:16:04;11.40;99.90
40960;DHT22;27842;52.272;8.052;2024-01-30T14:18:30;11.40;99.90
40960;DHT22;27842;52.272;8.052;2024-01-30T14:20:56;11.30;99.90
40960;DHT22;27842;52.272;8.052;2024-01-30T14:23:21;11.30;99.90
40960;DHT22;27842;52.272;8.052;2024-01-30T14:25:47;11.40;99.90
40960;DHT22;27842;52.272;8.052;2024-01-30T14:28:12;11.30;99.90
40960;DHT22;27842;52.272;8.052;2024-01-30T14:30:38;11.30;99.90
40960;DHT22;27842;52.272;8.052;2024-01-30T14:33:04;11.30;99.90
40960;DHT22;27842;52.272;8.052;2024-01-30T14:35:29;11.30;99.90
40960;DHT22;27842;52.272;8.052;2024-01-30T14:37:55;11.30;99.90
40960;DHT22;27842;52.272;8.052;2024-01-30T14:40:21;11.30;99.90
40960;DHT22;27842;52.272;8.052;2024-01-30T14:42:46;11.30;99.90
40960;DHT22;27842;52.272;8.052;2024-01-30T14:45:12;11.30;99.90
40960;DHT22;27842;52.272;8.052;2024-01-30T14:47:38;11.30;99.90
40960;DHT22;27842;52.272;8.052;2024-01-30T14:50:04;11.30;99.90
40960;DHT22;27842;52.272;8.052;2024-01-30T14:52:31;11.30;99.90
40960;DHT22;27842;52.272;8.052;2024-01-30T14:54:57;11.30;99.90
40960;DHT22;27842;52.272;8.052;2024-01-30T14:57:24;11.40;99.90
40960;DHT22;27842;52.272;8.052;2024-01-30T14:59:49;11.30;99.90
40960;DHT22;27842;52.272;8.052;2024-01-30T15:02:15;11.40;99.90
40960;DHT22;27842;52.272;8.052;2024-01-30T15:04:41;11.40;99.90
40960;DHT22;27842;52.272;8.052;2024-01-30T15:07:07;11.30;99.90
40960;DHT22;27842;52.272;8.052;2024-01-30T15:09:32;11.30;99.90
40960;DHT22;27842;52.272;8.052;2024-01-30T15:11:58;11.30;99.90
40960;DHT22;27842;52.272;8.052;2024-01-30T15:14:23;11.30;99.90
40960;DHT22;27842;52.272;8.052;2024-01-30T15:16:49;11.40;99.90
40960;DHT22;27842;52.272;8.052;2024-01-30T15:19:15;11.40;99.90
40960;DHT22;27842;52.272;8.052;2024-01-30T15:21:40;11.40;99.90
40960;DHT22;27842;52.272;8.052;2024-01-30T15:24:06;11.30;99.90
40960;DHT22;27842;52.272;8.052;2024-01-30T15:26:32;11.30;99.90
40960;DHT22;27842;52.272;8.052;2024-01-30T15:28:57;11.40;99.90
40960;DHT22;27842;52.272;8.052;2024-01-30T15:31:23;11.30;99.90
40960;DHT22;27842;52.272;8.052;2024-01-30T15:33:49;11.20;99.90
40960;DHT22;27842;52.272;8.052;2024-01-30T15:36:14;11.20;99.90